sensor_id;sensor_type;location;lat;lon;timestamp;pressure;altitude;pressure_sealevel;temperature;humidity
62634;BME280;48704;50.534;6.442;2024-01-07T00:00:40;95193.72;;;-1.42;100.00
62634;BME280;48704;50.534;6.442;2024-01-07T00:03:06;95193.66;;;-1.39;100.00
62634;BME280;48704;50.534;6.442;2024-01-07T00:05:39;95202.22;;;-1.37;100.00
62634;BME280;48704;50.534;6.442;2024-01-07T00:08:05;95195.34;;;-1.48;100.00
62634;BME280;48704;50.534;6.442;2024-01-07T00:10:31;95201.53;;;-1.44;100.00
62634;BME280;48704;50.534;6.442;2024-01-07T00:13:06;95198.41;;;-1.43;100.00
62634;BME280;48704;50.534;6.442;2024-01-07T00:15:42;95199.22;;;-1.46;100.00
62634;BME280;48704;50.534;6.442;2024-01-07T00:18:10;95206.09;;;-1.64;100.00
62634;BME280;48704;50.534;6.442;2024-01-07T00:20:37;95204.75;;;-1.49;100.00
62634;BME280;48704;50.534;6.442;2024-01-07T00:23:04;95203.97;;;-1.50;100.00
62634;BME280;48704;50.534;6.442;2024-01-07T00:25:31;95208.34;;;-1.56;100.00
62634;BME280;48704;50.534;6.442;2024-01-07T00:27:56;95207.06;;;-1.48;100.00
62634;BME280;48704;50.534;6.442;2024-01-07T00:30:22;95207.78;;;-1.44;100.00
62634;BME280;48704;50.534;6.442;2024-01-07T00:32:47;95211.00;;;-1.49;100.00
62634;BME280;48704;50.534;6.442;2024-01-07T00:35:16;95214.06;;;-1.47;100.00
62634;BME280;48704;50.534;6.442;2024-01-07T00:37:41;95217.97;;;-1.48;100.00
62634;BME280;48704;50.534;6.442;2024-01-07T00:40:07;95224.38;;;-1.58;100.00
62634;BME280;48704;50.534;6.442;2024-01-07T00:42:33;95224.41;;;-1.61;100.00
62634;BME280;48704;50.534;6.442;2024-01-07T00:44:58;95229.13;;;-1.65;100.00
62634;BME280;48704;50.534;6.442;2024-01-07T00:47:23;95224.41;;;-1.61;100.00
62634;BME280;48704;50.534;6.442;2024-01-07T00:49:49;95218.19;;;-1.65;100.00
62634;BME280;48704;50.534;6.442;2024-01-07T00:52:14;95234.13;;;-1.94;100.00
62634;BME280;48704;50.534;6.442;2024-01-07T00:54:39;95231.59;;;-1.78;100.00
62634;BME280;48704;50.534;6.442;2024-01-07T00:57:05;95240.97;;;-1.79;100.00
62634;BME280;48704;50.534;6.442;2024-01-07T00:59:48;95231.09;;;-2.04;100.00
62634;BME280;48704;50.534;6.442;2024-01-07T01:02:15;95234.63;;;-1.69;100.00
62634;BME280;48704;50.534;6.442;2024-01-07T01:04:45;95241.72;;;-1.75;100.00
62634;BME280;48704;50.534;6.442;2024-01-07T01:07:13;95240.91;;;-1.72;100.00
62634;BME280;48704;50.534;6.442;2024-01-07T01:09:46;95242.44;;;-1.71;100.00
62634;BME280;48704;50.534;6.442;2024-01-07T01:12:35;95243.94;;;-1.63;100.00
62634;BME280;48704;50.534;6.442;2024-01-07T01:15:01;95243.91;;;-1.59;100.00
62634;BME280;48704;50.534;6.442;2024-01-07T01:17:26;95239.50;;;-1.50;100.00
62634;BME280;48704;50.534;6.442;2024-01-07T01:19:52;95239.94;;;-1.55;100.00
62634;BME280;48704;50.534;6.442;2024-01-07T01:22:18;95245.41;;;-1.55;100.00
62634;BME280;48704;50.534;6.442;2024-01-07T01:24:45;95256.38;;;-1.58;100.00
62634;BME280;48704;50.534;6.442;2024-01-07T01:27:13;95249.25;;;-1.49;100.00
62634;BME280;48704;50.534;6.442;2024-01-07T01:29:43;95243.91;;;-1.59;100.00
62634;BME280;48704;50.534;6.442;2024-01-07T01:32:09;95246.91;;;-1.50;100.00
62634;BME280;48704;50.534;6.442;2024-01-07T01:34:41;95251.25;;;-1.53;100.00
62634;BME280;48704;50.534;6.442;2024-01-07T01:37:29;95256.97;;;-1.44;100.00
62634;BME280;48704;50.534;6.442;2024-01-07T01:40:03;95256.66;;;-1.49;100.00
62634;BME280;48704;50.534;6.442;2024-01-07T01:42:29;95265.00;;;-1.63;100.00
62634;BME280;48704;50.534;6.442;2024-01-07T01:44:55;95267.25;;;-1.55;100.00
62634;BME280;48704;50.534;6.442;2024-01-07T01:47:25;95270.25;;;-1.46;100.00
62634;BME280;48704;50.534;6.442;2024-01-07T01:49:51;95271.78;;;-1.41;100.00
62634;BME280;48704;50.534;6.442;2024-01-07T01:52:17;95274.28;;;-1.54;100.00
62634;BME280;48704;50.534;6.442;2024-01-07T01:54:42;95281.75;;;-1.58;100.00
62634;BME280;48704;50.534;6.442;2024-01-07T01:57:15;95279.78;;;-1.57;100.00
62634;BME280;48704;50.534;6.442;2024-01-07T01:59:48;95282.47;;;-1.54;100.00
62634;BME280;48704;50.534;6.442;2024-01-07T02:02:15;95284.47;;;-1.58;100.00
62634;BME280;48704;50.534;6.442;2024-01-07T02:04:41;95287.06;;;-1.47;100.00
62634;BME280;48704;50.534;6.442;2024-01-07T02:07:06;95287.53;;;-1.52;100.00
62634;BME280;48704;50.534;6.442;2024-01-07T02:09:32;95281.69;;;-1.54;100.00
62634;BME280;48704;50.534;6.442;2024-01-07T02:12:04;95285.00;;;-1.74;100.00
62634;BME280;48704;50.534;6.442;2024-01-07T02:14:30;95287.25;;;-1.61;100.00
62634;BME280;48704;50.534;6.442;2024-01-07T02:17:00;95286.06;;;-1.60;100.00
62634;BME280;48704;50.534;6.442;2024-01-07T02:19:26;95290.06;;;-1.72;100.00
62634;BME280;48704;50.534;6.442;2024-01-07T02:21:54;95288.88;;;-1.71;100.00
62634;BME280;48704;50.534;6.442;2024-01-07T02:24:21;95292.63;;;-1.54;100.00
62634;BME280;48704;50.534;6.442;2024-01-07T02:26:48;95293.69;;;-1.45;100.00
62634;BME280;48704;50.534;6.442;2024-01-07T02:29:14;95300.13;;;-1.62;100.00
62634;BME280;48704;50.534;6.442;2024-01-07T02:31:40;95302.69;;;-1.48;100.00
62634;BME280;48704;50.534;6.442;2024-01-07T02:34:08;95306.25;;;-1.51;100.00
62634;BME280;48704;50.534;6.442;2024-01-07T02:36:59;95305.34;;;-1.41;100.00
62634;BME280;48704;50.534;6.442;2024-01-07T02:39:25;95315.44;;;-1.34;100.00
62634;BME280;48704;50.534;6.442;2024-01-07T02:42:12;95309.94;;;-1.30;100.00
62634;BME280;48704;50.534;6.442;2024-01-07T02:44:43;95309.13;;;-1.27;100.00
62634;BME280;48704;50.534;6.442;2024-01-07T02:47:14;95309.22;;;-1.38;100.00
62634;BME280;48704;50.534;6.442;2024-01-07T02:49:43;95305.25;;;-1.30;100.00
62634;BME280;48704;50.534;6.442;2024-01-07T02:52:09;95313.09;;;-1.36;100.00
62634;BME280;48704;50.534;6.442;2024-01-07T02:54:38;95316.66;;;-1.39;100.00
62634;BME280;48704;50.534;6.442;2024-01-07T02:57:04;95310.41;;;-1.39;100.00
62634;BME280;48704;50.534;6.442;2024-01-07T02:59:34;95315.84;;;-1.36;100.00
62634;BME280;48704;50.534;6.442;2024-01-07T03:02:02;95315.53;;;-1.45;100.00
62634;BME280;48704;50.534;6.442;2024-01-07T03:04:28;95311.25;;;-1.46;100.00
62634;BME280;48704;50.534;6.442;2024-01-07T03:06:53;95321.63;;;-1.30;100.00
62634;BME280;48704;50.534;6.442;2024-01-07T03:09:19;95313.84;;;-1.31;100.00
62634;BME280;48704;50.534;6.442;2024-01-07T03:11:45;95311.13;;;-1.31;100.00
62634;BME280;48704;50.534;6.442;2024-01-07T03:14:11;95315.63;;;-1.52;100.00
62634;BME280;48704;50.534;6.442;2024-01-07T03:16:37;95320.97;;;-1.41;100.00
62634;BME280;48704;50.534;6.442;2024-01-07T03:19:06;95318.56;;;-1.36;100.00
62634;BME280;48704;50.534;6.442;2024-01-07T03:21:33;95317.31;;;-1.65;100.00
62634;BME280;48704;50.534;6.442;2024-01-07T03:23:58;95317.91;;;-1.47;100.00
62634;BME280;48704;50.534;6.442;2024-01-07T03:26:24;95318.00;;;-1.54;100.00
62634;BME280;48704;50.534;6.442;2024-01-07T03:28:50;95321.81;;;-1.48;100.00
62634;BME280;48704;50.534;6.442;2024-01-07T03:31:28;95317.03;;;-1.37;100.00
62634;BME280;48704;50.534;6.442;2024-01-07T03:34:16;95311.19;;;-1.39;100.00
62634;BME280;48704;50.534;6.442;2024-01-07T03:36:54;95317.19;;;-1.51;100.00
62634;BME280;48704;50.534;6.442;2024-01-07T03:39:19;95327.91;;;-1.33;100.00
62634;BME280;48704;50.534;6.442;2024-01-07T03:41:45;95321.81;;;-1.48;100.00
62634;BME280;48704;50.534;6.442;2024-01-07T03:44:11;95326.56;;;-1.52;100.00
62634;BME280;48704;50.534;6.442;2024-01-07T03:46:36;95321.81;;;-1.48;100.00
62634;BME280;48704;50.534;6.442;2024-01-07T03:49:04;95319.44;;;-1.46;100.00
62634;BME280;48704;50.534;6.442;2024-01-07T03:51:30;95325.78;;;-1.52;100.00
62634;BME280;48704;50.534;6.442;2024-01-07T03:54:30;95328.03;;;-1.44;100.00
62634;BME280;48704;50.534;6.442;2024-01-07T03:57:19;95329.19;;;-1.45;100.00
62634;BME280;48704;50.534;6.442;2024-01-07T04:00:49;95330.91;;;-1.58;100.00
62634;BME280;48704;50.534;6.442;2024-01-07T04:03:15;95336.50;;;-1.72;100.00
62634;BME280;48704;50.534;6.442;2024-01-07T04:05:41;95333.59;;;-1.51;100.00
62634;BME280;48704;50.534;6.442;2024-01-07T04:08:09;95341.38;;;-1.49;100.00
62634;BME280;48704;50.534;6.442;2024-01-07T04:10:35;95334.47;;;-1.61;100.00
62634;BME280;48704;50.534;6.442;2024-01-07T04:13:01;95338.31;;;-1.55;100.00
62634;BME280;48704;50.534;6.442;2024-01-07T04:15:29;95339.50;;;-1.56;100.00
62634;BME280;48704;50.534;6.442;2024-01-07T04:17:55;95338.38;;;-1.62;100.00
62634;BME280;48704;50.534;6.442;2024-01-07T04:20:21;95344.50;;;-1.51;100.00
62634;BME280;48704;50.534;6.442;2024-01-07T04:22:52;95337.56;;;-1.59;100.00
62634;BME280;48704;50.534;6.442;2024-01-07T04:25:21;95342.34;;;-1.70;100.00
62634;BME280;48704;50.534;6.442;2024-01-07T04:27:47;95347.03;;;-1.71;100.00
62634;BME280;48704;50.534;6.442;2024-01-07T04:30:14;95345.47;;;-1.72;100.00
62634;BME280;48704;50.534;6.442;2024-01-07T04:32:43;95350.53;;;-1.70;100.00
62634;BME280;48704;50.534;6.442;2024-01-07T04:35:08;95345.44;;;-1.68;100.00
62634;BME280;48704;50.534;6.442;2024-01-07T04:37:35;95352.09;;;-1.69;100.00
62634;BME280;48704;50.534;6.442;2024-01-07T04:40:03;95347.72;;;-1.59;100.00
62634;BME280;48704;50.534;6.442;2024-01-07T04:42:30;95353.97;;;-1.62;100.00
62634;BME280;48704;50.534;6.442;2024-01-07T04:44:55;95351.59;;;-1.57;100.00
62634;BME280;48704;50.534;6.442;2024-01-07T04:47:28;95358.22;;;-1.54;100.00
62634;BME280;48704;50.534;6.442;2024-01-07T04:49:54;95358.59;;;-1.52;100.00
62634;BME280;48704;50.534;6.442;2024-01-07T04:52:38;95360.97;;;-1.58;100.00
62634;BME280;48704;50.534;6.442;2024-01-07T04:55:30;95368.84;;;-1.67;100.00
62634;BME280;48704;50.534;6.442;2024-01-07T04:57:55;95364.88;;;-1.59;100.00
62634;BME280;48704;50.534;6.442;2024-01-07T05:00:20;95367.97;;;-1.53;100.00
62634;BME280;48704;50.534;6.442;2024-01-07T05:02:46;95367.56;;;-1.52;100.00
62634;BME280;48704;50.534;6.442;2024-01-07T05:05:11;95369.53;;;-1.56;100.00
62634;BME280;48704;50.534;6.442;2024-01-07T05:07:37;95377.34;;;-1.54;100.00
62634;BME280;48704;50.534;6.442;2024-01-07T05:10:06;95375.69;;;-1.48;100.00
62634;BME280;48704;50.534;6.442;2024-01-07T05:12:33;95367.72;;;-1.73;100.00
62634;BME280;48704;50.534;6.442;2024-01-07T05:16:34;95373.44;;;-1.57;100.00
62634;BME280;48704;50.534;6.442;2024-01-07T05:19:00;95372.75;;;-1.68;100.00
62634;BME280;48704;50.534;6.442;2024-01-07T05:21:26;95386.03;;;-1.66;100.00
62634;BME280;48704;50.534;6.442;2024-01-07T05:24:06;95382.09;;;-1.65;100.00
62634;BME280;48704;50.534;6.442;2024-01-07T05:26:43;95386.81;;;-1.70;100.00
62634;BME280;48704;50.534;6.442;2024-01-07T05:29:09;95388.34;;;-1.65;100.00
62634;BME280;48704;50.534;6.442;2024-01-07T05:31:36;95389.13;;;-1.64;100.00
62634;BME280;48704;50.534;6.442;2024-01-07T05:34:23;95391.44;;;-1.59;100.00
62634;BME280;48704;50.534;6.442;2024-01-07T05:37:01;95398.41;;;-1.55;100.00
62634;BME280;48704;50.534;6.442;2024-01-07T05:39:44;95401.53;;;-1.53;100.00
62634;BME280;48704;50.534;6.442;2024-01-07T05:42:10;95402.34;;;-1.59;100.00
62634;BME280;48704;50.534;6.442;2024-01-07T05:44:37;95402.63;;;-1.47;100.00
62634;BME280;48704;50.534;6.442;2024-01-07T05:47:07;95407.03;;;-1.60;100.00
62634;BME280;48704;50.534;6.442;2024-01-07T05:49:33;95404.25;;;-1.53;100.00
62634;BME280;48704;50.534;6.442;2024-01-07T05:51:58;95408.16;;;-1.54;100.00
62634;BME280;48704;50.534;6.442;2024-01-07T05:54:24;95403.19;;;-1.66;100.00
62634;BME280;48704;50.534;6.442;2024-01-07T05:56:52;95405.91;;;-1.62;100.00
62634;BME280;48704;50.534;6.442;2024-01-07T05:59:17;95414.09;;;-1.62;100.00
62634;BME280;48704;50.534;6.442;2024-01-07T06:01:43;95412.50;;;-1.60;100.00
62634;BME280;48704;50.534;6.442;2024-01-07T06:04:08;95421.13;;;-1.65;100.00
62634;BME280;48704;50.534;6.442;2024-01-07T06:06:34;95420.34;;;-1.65;100.00
62634;BME280;48704;50.534;6.442;2024-01-07T06:09:00;95423.81;;;-1.58;100.00
62634;BME280;48704;50.534;6.442;2024-01-07T06:11:32;95428.94;;;-1.63;100.00
62634;BME280;48704;50.534;6.442;2024-01-07T06:14:17;95429.75;;;-1.70;100.00
62634;BME280;48704;50.534;6.442;2024-01-07T06:16:42;95438.31;;;-1.64;100.00
62634;BME280;48704;50.534;6.442;2024-01-07T06:19:08;95428.59;;;-1.73;100.00
62634;BME280;48704;50.534;6.442;2024-01-07T06:21:33;95432.09;;;-1.72;100.00
62634;BME280;48704;50.534;6.442;2024-01-07T06:24:01;95436.81;;;-1.76;100.00
62634;BME280;48704;50.534;6.442;2024-01-07T06:26:27;95442.28;;;-1.76;100.00
62634;BME280;48704;50.534;6.442;2024-01-07T06:28:52;95444.59;;;-1.71;100.00
62634;BME280;48704;50.534;6.442;2024-01-07T06:31:17;95435.19;;;-1.66;100.00
62634;BME280;48704;50.534;6.442;2024-01-07T06:33:43;95439.84;;;-1.63;100.00
62634;BME280;48704;50.534;6.442;2024-01-07T06:36:08;95447.72;;;-1.73;100.00
62634;BME280;48704;50.534;6.442;2024-01-07T06:38:34;95457.81;;;-1.66;100.00
62634;BME280;48704;50.534;6.442;2024-01-07T06:41:02;95455.53;;;-1.71;100.00
62634;BME280;48704;50.534;6.442;2024-01-07T06:43:30;95457.06;;;-1.70;100.00
62634;BME280;48704;50.534;6.442;2024-01-07T06:45:56;95464.50;;;-1.74;100.00
62634;BME280;48704;50.534;6.442;2024-01-07T06:48:21;95464.50;;;-1.74;100.00
62634;BME280;48704;50.534;6.442;2024-01-07T06:50:47;95462.50;;;-1.66;100.00
62634;BME280;48704;50.534;6.442;2024-01-07T06:53:14;95467.19;;;-1.63;100.00
62634;BME280;48704;50.534;6.442;2024-01-07T06:55:41;95475.72;;;-1.58;100.00
62634;BME280;48704;50.534;6.442;2024-01-07T06:58:07;95475.78;;;-1.69;100.00
62634;BME280;48704;50.534;6.442;2024-01-07T07:00:32;95472.63;;;-1.63;100.00
62634;BME280;48704;50.534;6.442;2024-01-07T07:02:58;95475.34;;;-1.60;100.00
62634;BME280;48704;50.534;6.442;2024-01-07T07:05:32;95477.72;;;-1.65;100.00
62634;BME280;48704;50.534;6.442;2024-01-07T07:07:59;95489.81;;;-1.63;100.00
62634;BME280;48704;50.534;6.442;2024-01-07T07:10:33;95488.28;;;-1.71;100.00
62634;BME280;48704;50.534;6.442;2024-01-07T07:12:58;95494.56;;;-1.74;100.00
62634;BME280;48704;50.534;6.442;2024-01-07T07:15:29;95499.22;;;-1.71;100.00
62634;BME280;48704;50.534;6.442;2024-01-07T07:17:55;95501.22;;;-1.79;100.00
62634;BME280;48704;50.534;6.442;2024-01-07T07:20:21;95508.22;;;-1.74;100.00
62634;BME280;48704;50.534;6.442;2024-01-07T07:22:46;95503.25;;;-1.86;100.00
62634;BME280;48704;50.534;6.442;2024-01-07T07:25:14;95509.81;;;-1.80;100.00
62634;BME280;48704;50.534;6.442;2024-01-07T07:27:39;95515.63;;;-1.75;100.00
62634;BME280;48704;50.534;6.442;2024-01-07T07:30:05;95517.13;;;-1.63;100.00
62634;BME280;48704;50.534;6.442;2024-01-07T07:32:31;95516.38;;;-1.67;100.00
62634;BME280;48704;50.534;6.442;2024-01-07T07:34:57;95515.53;;;-1.57;100.00
62634;BME280;48704;50.534;6.442;2024-01-07T07:37:22;95529.56;;;-1.55;100.00
62634;BME280;48704;50.534;6.442;2024-01-07T07:39:48;95536.59;;;-1.54;100.00
62634;BME280;48704;50.534;6.442;2024-01-07T07:42:14;95530.44;;;-1.72;100.00
62634;BME280;48704;50.534;6.442;2024-01-07T07:44:40;95533.53;;;-1.63;100.00
62634;BME280;48704;50.534;6.442;2024-01-07T07:47:06;95539.00;;;-1.66;100.00
62634;BME280;48704;50.534;6.442;2024-01-07T07:49:32;95543.75;;;-1.81;100.00
62634;BME280;48704;50.534;6.442;2024-01-07T07:51:58;95547.66;;;-1.82;100.00
62634;BME280;48704;50.534;6.442;2024-01-07T07:54:23;95550.00;;;-1.81;100.00
62634;BME280;48704;50.534;6.442;2024-01-07T07:56:48;95553.88;;;-1.78;100.00
62634;BME280;48704;50.534;6.442;2024-01-07T07:59:14;95560.50;;;-1.72;100.00
62634;BME280;48704;50.534;6.442;2024-01-07T08:01:39;95561.31;;;-1.82;100.00
62634;BME280;48704;50.534;6.442;2024-01-07T08:04:05;95566.41;;;-1.84;100.00
62634;BME280;48704;50.534;6.442;2024-01-07T08:06:30;95555.47;;;-1.84;100.00
62634;BME280;48704;50.534;6.442;2024-01-07T08:08:56;95559.38;;;-1.82;100.00
62634;BME280;48704;50.534;6.442;2024-01-07T08:11:21;95557.13;;;-1.97;100.00
62634;BME280;48704;50.534;6.442;2024-01-07T08:13:46;95570.38;;;-1.92;100.00
62634;BME280;48704;50.534;6.442;2024-01-07T08:16:12;95573.50;;;-1.97;100.00
62634;BME280;48704;50.534;6.442;2024-01-07T08:18:38;95577.44;;;-2.06;100.00
62634;BME280;48704;50.534;6.442;2024-01-07T08:21:03;95581.34;;;-2.03;100.00
62634;BME280;48704;50.534;6.442;2024-01-07T08:23:29;95585.25;;;-2.08;100.00
62634;BME280;48704;50.534;6.442;2024-01-07T08:25:55;95593.03;;;-2.03;100.00
62634;BME280;48704;50.534;6.442;2024-01-07T08:28:21;95590.69;;;-2.00;100.00
62634;BME280;48704;50.534;6.442;2024-01-07T08:30:47;95594.56;;;-1.94;100.00
62634;BME280;48704;50.534;6.442;2024-01-07T08:33:12;95594.56;;;-1.94;100.00
62634;BME280;48704;50.534;6.442;2024-01-07T08:35:38;95600.81;;;-1.97;100.00
62634;BME280;48704;50.534;6.442;2024-01-07T08:38:03;95600.03;;;-1.94;100.00
62634;BME280;48704;50.534;6.442;2024-01-07T08:40:30;95609.78;;;-1.93;100.00
62634;BME280;48704;50.534;6.442;2024-01-07T08:42:55;95610.19;;;-1.98;100.00
62634;BME280;48704;50.534;6.442;2024-01-07T08:45:21;95607.44;;;-1.98;100.00
62634;BME280;48704;50.534;6.442;2024-01-07T08:47:47;95616.81;;;-1.99;100.00
62634;BME280;48704;50.534;6.442;2024-01-07T08:50:12;95619.97;;;-2.08;100.00
62634;BME280;48704;50.534;6.442;2024-01-07T08:52:38;95621.88;;;-1.94;100.00
62634;BME280;48704;50.534;6.442;2024-01-07T08:55:04;95627.72;;;-1.92;100.00
62634;BME280;48704;50.534;6.442;2024-01-07T08:57:32;95620.31;;;-1.95;100.00
62634;BME280;48704;50.534;6.442;2024-01-07T08:59:58;95621.50;;;-1.96;100.00
62634;BME280;48704;50.534;6.442;2024-01-07T09:02:24;95623.47;;;-2.08;100.00
62634;BME280;48704;50.534;6.442;2024-01-07T09:04:53;95632.81;;;-1.98;100.00
62634;BME280;48704;50.534;6.442;2024-01-07T09:07:19;95628.13;;;-1.97;100.00
62634;BME280;48704;50.534;6.442;2024-01-07T09:09:44;95628.16;;;-2.12;100.00
62634;BME280;48704;50.534;6.442;2024-01-07T09:12:10;95632.81;;;-2.05;100.00
62634;BME280;48704;50.534;6.442;2024-01-07T09:14:37;95645.28;;;-2.00;100.00
62634;BME280;48704;50.534;6.442;2024-01-07T09:17:02;95641.38;;;-1.99;100.00
62634;BME280;48704;50.534;6.442;2024-01-07T09:19:28;95646.84;;;-1.96;100.00
62634;BME280;48704;50.534;6.442;2024-01-07T09:21:54;95642.16;;;-1.95;100.00
62634;BME280;48704;50.534;6.442;2024-01-07T09:24:19;95646.81;;;-1.89;100.00
62634;BME280;48704;50.534;6.442;2024-01-07T09:26:44;95643.66;;;-1.80;100.00
62634;BME280;48704;50.534;6.442;2024-01-07T09:29:11;95639.78;;;-1.86;100.00
62634;BME280;48704;50.534;6.442;2024-01-07T09:31:37;95651.44;;;-1.79;100.00
62634;BME280;48704;50.534;6.442;2024-01-07T09:34:02;95652.47;;;-1.48;100.00
62634;BME280;48704;50.534;6.442;2024-01-07T09:36:28;95659.81;;;-1.30;100.00
62634;BME280;48704;50.534;6.442;2024-01-07T09:38:54;95663.78;;;-1.46;100.00
62634;BME280;48704;50.534;6.442;2024-01-07T09:41:19;95657.50;;;-1.36;100.00
62634;BME280;48704;50.534;6.442;2024-01-07T09:43:44;95665.84;;;-1.64;100.00
62634;BME280;48704;50.534;6.442;2024-01-07T09:46:10;95663.09;;;-1.57;100.00
62634;BME280;48704;50.534;6.442;2024-01-07T09:48:35;95667.69;;;-1.47;100.00
62634;BME280;48704;50.534;6.442;2024-01-07T09:51:01;95663.00;;;-1.43;100.00
62634;BME280;48704;50.534;6.442;2024-01-07T09:53:33;95662.94;;;-1.28;100.00
62634;BME280;48704;50.534;6.442;2024-01-07T09:56:03;95664.16;;;-1.44;100.00
62634;BME280;48704;50.534;6.442;2024-01-07T09:58:31;95667.78;;;-1.61;100.00
62634;BME280;48704;50.534;6.442;2024-01-07T10:00:57;95672.44;;;-1.51;100.00
62634;BME280;48704;50.534;6.442;2024-01-07T10:03:22;95668.44;;;-1.36;100.00
62634;BME280;48704;50.534;6.442;2024-01-07T10:05:47;95678.16;;;-1.27;100.00
62634;BME280;48704;50.534;6.442;2024-01-07T10:08:13;95678.13;;;-1.20;100.00
62634;BME280;48704;50.534;6.442;2024-01-07T10:10:38;95679.22;;;-1.11;100.00
62634;BME280;48704;50.534;6.442;2024-01-07T10:13:06;95682.28;;;-0.98;100.00
62634;BME280;48704;50.534;6.442;2024-01-07T10:15:33;95683.03;;;-0.94;100.00
62634;BME280;48704;50.534;6.442;2024-01-07T10:18:03;95687.66;;;-0.84;100.00
62634;BME280;48704;50.534;6.442;2024-01-07T10:20:31;95694.03;;;-1.05;100.00
62634;BME280;48704;50.534;6.442;2024-01-07T10:22:57;95691.03;;;-1.24;100.00
62634;BME280;48704;50.534;6.442;2024-01-07T10:25:23;95696.75;;;-1.05;100.00
62634;BME280;48704;50.534;6.442;2024-01-07T10:27:48;95697.31;;;-1.35;100.00
62634;BME280;48704;50.534;6.442;2024-01-07T10:30:15;95704.34;;;-1.33;100.00
62634;BME280;48704;50.534;6.442;2024-01-07T10:32:42;95704.44;;;-1.55;100.00
62634;BME280;48704;50.534;6.442;2024-01-07T10:35:12;95701.19;;;-1.28;100.00
62634;BME280;48704;50.534;6.442;2024-01-07T10:37:38;95699.72;;;-1.47;100.00
62634;BME280;48704;50.534;6.442;2024-01-07T10:40:06;95698.44;;;-1.21;100.00
62634;BME280;48704;50.534;6.442;2024-01-07T10:42:33;95704.31;;;-1.26;100.00
62634;BME280;48704;50.534;6.442;2024-01-07T10:45:02;95691.88;;;-1.38;100.00
62634;BME280;48704;50.534;6.442;2024-01-07T10:47:34;95689.56;;;-1.47;100.00
62634;BME280;48704;50.534;6.442;2024-01-07T10:50:01;95692.38;;;-1.61;100.00
62634;BME280;48704;50.534;6.442;2024-01-07T10:52:27;95700.09;;;-1.45;100.00
62634;BME280;48704;50.534;6.442;2024-01-07T10:54:57;95694.97;;;-1.32;100.00
62634;BME280;48704;50.534;6.442;2024-01-07T10:57:38;95697.31;;;-1.35;100.00
62634;BME280;48704;50.534;6.442;2024-01-07T11:00:07;95703.59;;;-1.45;100.00
62634;BME280;48704;50.534;6.442;2024-01-07T11:03:09;95701.34;;;-1.57;100.00
62634;BME280;48704;50.534;6.442;2024-01-07T11:05:58;95712.31;;;-1.78;100.00
62634;BME280;48704;50.534;6.442;2024-01-07T11:08:34;95708.34;;;-1.52;100.00
62634;BME280;48704;50.534;6.442;2024-01-07T11:13:38;95709.06;;;-1.45;100.00
62634;BME280;48704;50.534;6.442;2024-01-07T11:16:07;95708.75;;;-1.61;100.00
62634;BME280;48704;50.534;6.442;2024-01-07T11:18:40;95710.59;;;-1.37;100.00
62634;BME280;48704;50.534;6.442;2024-01-07T11:21:10;95703.56;;;-1.30;100.00
62634;BME280;48704;50.534;6.442;2024-01-07T11:23:42;95707.47;;;-1.31;100.00
62634;BME280;48704;50.534;6.442;2024-01-07T11:26:08;95708.22;;;-1.24;100.00
62634;BME280;48704;50.534;6.442;2024-01-07T11:31:21;95699.22;;;-1.24;100.00
62634;BME280;48704;50.534;6.442;2024-01-07T11:33:50;95711.41;;;-1.47;100.00
62634;BME280;48704;50.534;6.442;2024-01-07T11:36:17;95702.72;;;-1.17;100.00
62634;BME280;48704;50.534;6.442;2024-01-07T11:38:44;95702.91;;;-1.56;100.00
62634;BME280;48704;50.534;6.442;2024-01-07T11:41:11;95706.03;;;-1.57;100.00
62634;BME280;48704;50.534;6.442;2024-01-07T11:43:37;95702.06;;;-1.46;100.00
62634;BME280;48704;50.534;6.442;2024-01-07T11:46:03;95707.56;;;-1.53;100.00
62634;BME280;48704;50.534;6.442;2024-01-07T11:48:28;95704.34;;;-1.33;100.00
62634;BME280;48704;50.534;6.442;2024-01-07T11:50:54;95707.09;;;-1.33;100.00
62634;BME280;48704;50.534;6.442;2024-01-07T11:53:20;95706.59;;;-1.14;100.00
62634;BME280;48704;50.534;6.442;2024-01-07T11:55:46;95705.00;;;-1.08;100.00
62634;BME280;48704;50.534;6.442;2024-01-07T11:58:12;95705.47;;;-1.20;100.00
62634;BME280;48704;50.534;6.442;2024-01-07T12:00:37;95712.41;;;-1.05;100.00
62634;BME280;48704;50.534;6.442;2024-01-07T12:03:03;95701.13;;;-1.14;100.00
62634;BME280;48704;50.534;6.442;2024-01-07T12:05:29;95713.56;;;-1.06;100.00
62634;BME280;48704;50.534;6.442;2024-01-07T12:07:56;95708.22;;;-1.27;100.00
62634;BME280;48704;50.534;6.442;2024-01-07T12:10:23;95715.88;;;-1.01;100.00
62634;BME280;48704;50.534;6.442;2024-01-07T12:12:49;95716.78;;;-1.18;100.00
62634;BME280;48704;50.534;6.442;2024-01-07T12:15:16;95718.38;;;-1.24;100.00
62634;BME280;48704;50.534;6.442;2024-01-07T12:17:42;95720.31;;;-1.25;100.00
62634;BME280;48704;50.534;6.442;2024-01-07T12:20:08;95711.47;;;-1.50;100.00
62634;BME280;48704;50.534;6.442;2024-01-07T12:22:40;95720.06;;;-1.59;100.00
62634;BME280;48704;50.534;6.442;2024-01-07T12:25:06;95727.00;;;-1.37;100.00
62634;BME280;48704;50.534;6.442;2024-01-07T12:27:32;95728.66;;;-1.53;100.00
62634;BME280;48704;50.534;6.442;2024-01-07T12:29:59;95732.59;;;-1.72;100.00
62634;BME280;48704;50.534;6.442;2024-01-07T12:32:27;95731.00;;;-1.62;100.00
62634;BME280;48704;50.534;6.442;2024-01-07T12:34:53;95723.59;;;-1.55;100.00
62634;BME280;48704;50.534;6.442;2024-01-07T12:37:18;95726.38;;;-1.80;100.00
62634;BME280;48704;50.534;6.442;2024-01-07T12:39:44;95724.09;;;-2.06;100.00
62634;BME280;48704;50.534;6.442;2024-01-07T12:42:09;95731.88;;;-1.97;100.00
62634;BME280;48704;50.534;6.442;2024-01-07T12:44:36;95724.09;;;-2.03;100.00
62634;BME280;48704;50.534;6.442;2024-01-07T12:47:01;95720.59;;;-2.10;100.00
62634;BME280;48704;50.534;6.442;2024-01-07T12:49:28;95716.28;;;-1.93;100.00
62634;BME280;48704;50.534;6.442;2024-01-07T12:51:53;95720.19;;;-1.94;100.00
62634;BME280;48704;50.534;6.442;2024-01-07T12:54:19;95735.03;;;-2.17;100.00
62634;BME280;48704;50.534;6.442;2024-01-07T12:56:44;95741.28;;;-2.41;100.00
62634;BME280;48704;50.534;6.442;2024-01-07T12:59:10;95739.72;;;-2.35;100.00
62634;BME280;48704;50.534;6.442;2024-01-07T13:01:35;95745.97;;;-2.31;100.00